Time;durP1;ratioP1;P1;durP2;ratioP2;P2;SDS_P1;SDS_P2;PMS_P1;PMS_P2;Temp;Humidity;BMP_temperature;BMP_pressure;BME280_temperature;BME280_humidity;BME280_pressure;Samples;Min_cycle;Max_cycle;Signal;HPM_P1;HPM_P2
2022/12/14 00:01:21;;;;;;;10.13;2.42;;;;;;;-3.25;76.71;100005.47;6020796;23;20011;-73
2022/12/14 00:03:48;;;;;;;4.60;2.85;;;;;;;-3.26;76.75;100008.91;6049749;23;20453;-73
2022/12/14 00:06:17;;;;;;;3.35;3.20;;;;;;;-3.21;76.78;100036.25;6038878;23;20090;-74
2022/12/14 00:08:45;;;;;;;2.40;2.30;;;;;;;-3.10;77.14;100049.00;5995868;23;20027;-73
2022/12/14 00:11:13;;;;;;;3.95;3.53;;;;;;;-2.85;77.06;100062.50;6018871;23;20010;-73
2022/12/14 00:13:43;;;;;;;3.70;2.90;;;;;;;-2.76;75.82;100058.19;6024975;23;20033;-74
2022/12/14 00:16:16;;;;;;;2.30;2.20;;;;;;;-2.88;76.75;100031.72;6029916;23;20038;-74
2022/12/14 00:18:47;;;;;;;2.33;2.22;;;;;;;-2.70;76.53;100035.84;6021630;23;20031;-74
2022/12/14 00:21:14;;;;;;;2.63;2.53;;;;;;;-3.04;75.53;99991.63;6055836;23;20653;-74
2022/12/14 00:23:42;;;;;;;2.40;2.30;;;;;;;-2.73;75.90;100028.16;6023621;23;20033;-73
2022/12/14 00:26:12;;;;;;;4.38;3.95;;;;;;;-2.66;74.78;100024.69;6036295;23;20010;-74
2022/12/14 00:28:39;;;;;;;3.08;2.85;;;;;;;-2.88;75.73;99989.81;5995496;23;20022;-73
2022/12/14 00:31:06;;;;;;;2.88;2.78;;;;;;;-2.93;75.53;99986.41;6005582;23;20512;-73
2022/12/14 00:33:33;;;;;;;2.40;2.30;;;;;;;-2.89;76.05;99994.06;6033780;23;20026;-73
2022/12/14 00:36:00;;;;;;;2.75;2.65;;;;;;;-2.70;75.86;100020.44;6014656;23;20481;-72
2022/12/14 00:38:27;;;;;;;3.47;3.20;;;;;;;-2.87;76.08;99992.34;6043194;23;20018;-75
2022/12/14 00:40:54;;;;;;;2.58;2.47;;;;;;;-3.34;75.80;99913.19;6012953;23;20031;-75
2022/12/14 00:43:22;;;;;;;2.58;2.42;;;;;;;-3.06;75.74;99939.47;6036955;23;20022;-74
2022/12/14 00:45:49;;;;;;;2.72;2.63;;;;;;;-2.64;74.78;100002.41;6011490;23;20071;-72
2022/12/14 00:48:17;;;;;;;3.13;2.97;;;;;;;-2.62;76.11;100007.53;6042014;23;20041;-74
2022/12/14 00:50:46;;;;;;;2.45;2.25;;;;;;;-2.66;75.44;100005.88;6022055;23;20247;-73
2022/12/14 00:53:15;;;;;;;3.05;2.85;;;;;;;-2.65;75.66;100005.81;6028585;23;20476;-73
2022/12/14 00:55:43;;;;;;;2.42;2.33;;;;;;;-3.26;75.93;99913.97;5996047;23;20253;-75
2022/12/14 00:58:17;;;;;;;2.25;2.15;;;;;;;-3.13;75.84;99923.25;6053436;23;20022;-72
2022/12/14 01:00:44;;;;;;;2.88;2.78;;;;;;;-2.66;75.34;99995.59;6040435;23;20023;-73
2022/12/14 01:03:11;;;;;;;2.50;2.40;;;;;;;-2.66;76.61;100001.56;6015557;23;20500;-73
2022/12/14 01:05:38;;;;;;;3.25;2.88;;;;;;;-2.95;76.52;99960.75;6054743;23;20026;-74
2022/12/14 01:08:05;;;;;;;2.55;2.45;;;;;;;-2.53;75.39;99986.03;5983527;23;20074;-73
2022/12/14 01:10:31;;;;;;;3.38;3.17;;;;;;;-3.32;74.57;99845.59;6052018;23;20074;-73
2022/12/14 01:12:58;;;;;;;2.28;2.17;;;;;;;-3.67;74.83;99787.81;6009311;23;20079;-74
2022/12/14 01:15:24;;;;;;;2.97;2.78;;;;;;;-2.50;74.85;99971.44;6034782;23;20090;-73
2022/12/14 01:17:51;;;;;;;2.78;2.58;;;;;;;-3.05;74.70;99867.59;6010051;23;20019;-74
2022/12/14 01:20:18;;;;;;;3.15;2.95;;;;;;;-2.54;75.56;99946.66;6055960;23;20030;-73
2022/12/14 01:22:45;;;;;;;3.15;2.97;;;;;;;-3.23;74.41;99842.09;6018331;23;20027;-73
2022/12/14 01:25:11;;;;;;;3.58;2.55;;;;;;;-2.90;75.30;99910.22;6005566;23;20660;-74
2022/12/14 01:27:37;;;;;;;2.75;2.65;;;;;;;-2.99;74.49;99897.47;6028663;23;20034;-74
2022/12/14 01:30:04;;;;;;;3.00;2.90;;;;;;;-2.78;75.21;99916.94;6009466;23;20030;-73
2022/12/14 01:32:31;;;;;;;2.30;2.20;;;;;;;-2.61;75.93;99927.03;6050311;23;20042;-73
2022/12/14 01:34:57;;;;;;;2.72;2.63;;;;;;;-3.15;74.77;99835.16;6013716;23;20047;-74
2022/12/14 01:37:23;;;;;;;2.50;2.40;;;;;;;-3.53;74.17;99774.81;5990252;23;20046;-73
2022/12/14 01:39:50;;;;;;;2.90;2.80;;;;;;;-2.63;75.28;99929.63;6026429;23;20340;-74
2022/12/14 01:42:16;;;;;;;2.38;2.28;;;;;;;-2.59;75.57;99927.88;6036157;23;20583;-73
2022/12/14 01:44:43;;;;;;;2.17;2.08;;;;;;;-2.62;75.29;99922.78;6009428;23;20027;-72
2022/12/14 01:47:33;;;;;;;2.45;2.35;;;;;;;-3.03;74.30;99872.69;6043929;23;20562;-72
2022/12/14 01:50:07;;;;;;;7.22;3.20;;;;;;;-2.71;75.20;99925.44;6010614;23;20700;-72
2022/12/14 01:52:42;;;;;;;2.70;2.60;;;;;;;-3.06;75.50;99890.69;6010327;23;20027;-74
2022/12/14 01:55:25;;;;;;;2.78;2.67;;;;;;;-3.75;74.63;99755.38;6037780;23;20105;-73
2022/12/14 01:58:01;;;;;;;;;;;;;;;-2.79;75.53;99907.53;6012953;23;20027;-74
2022/12/14 02:00:28;;;;;;;2.45;2.35;;;;;;;-2.83;75.37;99898.16;6042379;23;20563;-74
2022/12/14 02:03:00;;;;;;;2.30;2.20;;;;;;;-3.01;76.08;99876.09;6014852;23;20007;-74
2022/12/14 02:05:31;;;;;;;2.30;2.20;;;;;;;-3.15;75.90;99865.13;6040105;23;20039;-74
2022/12/14 02:07:57;;;;;;;2.58;2.47;;;;;;;-3.81;76.22;99746.91;6020881;23;20022;-74
2022/12/14 02:10:26;;;;;;;2.72;2.60;;;;;;;-2.95;76.85;99894.00;6050018;23;20026;-74
2022/12/14 02:13:08;;;;;;;2.75;2.65;;;;;;;-3.14;76.05;99870.25;6025343;23;20027;-73
2022/12/14 02:15:37;;;;;;;2.60;2.50;;;;;;;-3.90;76.04;99749.53;6006478;23;20066;-74
2022/12/14 02:18:06;;;;;;;3.58;3.30;;;;;;;-3.25;77.18;99862.66;6039844;23;20026;-74
2022/12/14 02:21:04;;;;;;;2.60;2.50;;;;;;;-3.35;76.67;99855.88;6010711;23;20026;-74
2022/12/14 02:24:06;;;;;;;2.72;2.53;;;;;;;-3.09;78.45;99904.41;6053053;23;20023;-74
2022/12/14 02:26:44;;;;;;;2.60;2.50;;;;;;;-3.14;78.54;99903.59;5998092;23;20051;-74
2022/12/14 02:29:31;;;;;;;2.95;2.55;;;;;;;-3.17;79.11;99908.75;6030969;23;20018;-74
2022/12/14 02:32:25;;;;;;;2.92;2.72;;;;;;;-3.14;78.25;99907.91;6020609;23;20027;-73
2022/12/14 02:35:20;;;;;;;2.35;2.25;;;;;;;-3.18;79.35;99913.91;6052881;23;20031;-75
2022/12/14 02:38:00;;;;;;;3.15;2.95;;;;;;;-3.22;79.85;99913.94;6027977;23;20026;-74
2022/12/14 02:40:42;;;;;;;8.07;2.97;;;;;;;-4.11;79.81;99776.19;6004500;23;20411;-74
2022/12/14 02:43:11;;;;;;;;;;;;;;;-3.27;79.24;99920.84;6030030;23;20101;-73
2022/12/14 02:45:42;;;;;;;2.38;2.28;;;;;;;-3.62;80.01;99870.66;6046165;23;19910;-73
2022/12/14 02:48:18;;;;;;;2.63;2.53;;;;;;;-3.62;79.73;99867.25;5986790;23;20454;-74
2022/12/14 02:50:57;;;;;;;2.65;2.55;;;;;;;-3.30;81.08;99917.44;6052645;23;20030;-72
2022/12/14 02:53:37;;;;;;;2.33;2.22;;;;;;;-3.30;81.20;99915.72;6027873;23;20023;-73
2022/12/14 02:56:09;;;;;;;2.78;2.63;;;;;;;-3.30;80.07;99918.28;6012225;23;20007;-74
2022/12/14 02:58:45;;;;;;;2.95;2.80;;;;;;;-3.65;80.62;99850.19;6043782;23;20169;-72
2022/12/14 03:01:14;;;;;;;2.60;2.50;;;;;;;-3.30;80.00;99902.88;6014300;23;20014;-74
2022/12/14 03:03:41;;;;;;;2.50;2.40;;;;;;;-3.43;81.12;99875.63;6007893;23;20031;-73
2022/12/14 03:06:13;;;;;;;2.85;2.40;;;;;;;-3.27;80.72;99890.03;6056782;23;20022;-73
2022/12/14 03:08:43;;;;;;;3.13;2.88;;;;;;;-3.16;80.29;99886.53;6042303;23;20024;-75
2022/12/14 03:11:14;;;;;;;2.90;2.70;;;;;;;-3.21;80.75;99877.16;6012087;23;20576;-74
2022/12/14 03:13:56;;;;;;;2.50;2.40;;;;;;;-3.82;81.13;99785.34;6050791;23;20026;-73
2022/12/14 03:16:28;;;;;;;3.33;3.03;;;;;;;-3.44;80.88;99861.13;6027355;23;20037;-73
2022/12/14 03:19:02;;;;;;;3.05;2.90;;;;;;;-3.28;80.75;99890.91;6005723;23;20324;-73
2022/12/14 03:21:42;;;;;;;2.30;2.20;;;;;;;-3.58;80.61;99853.53;6031616;23;20041;-72
2022/12/14 03:24:12;;;;;;;2.25;2.15;;;;;;;-3.72;80.87;99840.81;6025380;23;20035;-73
2022/12/14 03:26:45;;;;;;;2.60;2.50;;;;;;;-3.82;81.37;99836.63;6051417;23;20330;-74
2022/12/14 03:29:23;;;;;;;4.20;4.00;;;;;;;-4.26;81.65;99761.75;6010424;23;20047;-72
2022/12/14 03:31:57;;;;;;;2.20;2.10;;;;;;;-3.71;81.00;99852.78;6050578;23;20022;-72
2022/12/14 03:34:30;;;;;;;4.32;2.75;;;;;;;-3.90;81.78;99836.69;5998503;23;20023;-72
2022/12/14 03:37:13;;;;;;;3.13;2.75;;;;;;;-3.50;82.07;99905.59;5987588;23;20542;-73
2022/12/14 03:39:42;;;;;;;2.67;2.50;;;;;;;-3.45;82.51;99923.53;6028642;23;20029;-72
2022/12/14 03:42:20;;;;;;;2.35;2.25;;;;;;;-3.45;83.32;99920.94;6041900;23;20377;-72
2022/12/14 03:45:20;;;;;;;2.45;2.35;;;;;;;-3.45;83.48;99923.53;5999263;23;20414;-72
2022/12/14 03:47:54;;;;;;;3.05;2.95;;;;;;;-3.44;83.68;99917.53;6027244;23;20037;-73
2022/12/14 03:50:36;;;;;;;2.22;2.13;;;;;;;-3.77;82.31;99857.94;6027031;23;20030;-72
2022/12/14 03:53:22;;;;;;;2.22;2.13;;;;;;;-3.40;83.42;99929.47;6005703;23;20034;-73
2022/12/14 03:56:36;;;;;;;2.67;2.55;;;;;;;-3.56;82.72;99882.56;6030415;23;20445;-73
2022/12/14 03:59:11;;;;;;;2.20;2.10;;;;;;;-3.34;82.58;99916.59;5909643;24;20029;-73
2022/12/14 04:01:43;;;;;;;3.03;2.72;;;;;;;-3.31;82.61;99906.28;6008585;23;20027;-73
2022/12/14 04:04:29;;;;;;;2.53;2.42;;;;;;;-3.29;81.70;99899.44;6012165;23;20033;-72
2022/12/14 04:07:09;;;;;;;2.30;2.20;;;;;;;-3.46;81.80;99888.50;6013273;23;20485;-73
2022/12/14 04:09:53;;;;;;;3.47;3.17;;;;;;;-3.83;82.29;99830.66;6037419;23;20336;-73
2022/12/14 04:21:22;;;;;;;2.65;2.55;;;;;;;-3.80;81.33;99801.56;6054300;23;20025;-72
2022/12/14 04:26:50;;;;;;;3.28;3.10;;;;;;;-3.67;80.86;99805.75;6049943;23;20026;-72
2022/12/14 04:32:33;;;;;;;2.58;2.47;;;;;;;-3.12;80.29;99881.34;6051409;23;20006;-73
2022/12/14 04:35:06;;;;;;;2.58;2.35;;;;;;;-3.73;81.44;99774.16;6001475;23;20446;-74
2022/12/14 04:37:36;;;;;;;2.38;2.28;;;;;;;-3.47;81.33;99843.16;5999583;23;20423;-73
2022/12/14 04:40:10;;;;;;;3.05;2.50;;;;;;;-3.13;81.15;99869.34;6007057;23;20585;-74
2022/12/14 04:42:57;;;;;;;2.70;2.60;;;;;;;-3.11;80.97;99877.91;6030909;23;20322;-74
2022/12/14 04:45:43;;;;;;;3.22;3.03;;;;;;;-3.30;81.36;99843.03;6017208;23;21409;-73
2022/12/14 04:48:29;;;;;;;2.03;1.95;;;;;;;-3.11;81.78;99871.91;6004006;23;20055;-74
2022/12/14 04:51:08;;;;;;;2.47;2.38;;;;;;;-3.43;81.03;99814.06;6022481;23;20089;-74
2022/12/14 04:53:37;;;;;;;2.28;2.17;;;;;;;-3.09;81.01;99880.44;5998096;23;20019;-75
2022/12/14 04:56:08;;;;;;;2.20;2.10;;;;;;;-3.54;80.72;99792.81;6048520;23;20002;-73
2022/12/14 04:58:35;;;;;;;2.85;2.75;;;;;;;-4.45;80.65;99647.50;6036457;23;20027;-72
2022/12/14 05:01:21;;;;;;;2.90;2.80;;;;;;;-2.99;81.57;99864.09;6017480;23;20011;-74
2022/12/14 05:03:59;;;;;;;3.03;2.88;;;;;;;-3.41;81.01;99787.56;5990106;23;20081;-74
2022/12/14 05:06:29;;;;;;;1.95;1.88;;;;;;;-3.81;79.92;99716.13;6017638;23;20707;-73
2022/12/14 05:09:17;;;;;;;2.83;2.63;;;;;;;-2.93;79.41;99840.91;6023005;23;20574;-74
2022/12/14 05:12:14;;;;;;;2.28;2.17;;;;;;;-2.96;80.45;99827.28;6016667;23;20011;-72
2022/12/14 05:14:53;;;;;;;2.22;2.13;;;;;;;-2.94;80.36;99838.41;6051025;23;20274;-73
2022/12/14 05:17:19;;;;;;;2.30;2.20;;;;;;;-3.06;79.79;99808.56;6028503;23;20517;-73
2022/12/14 05:19:48;;;;;;;2.63;2.53;;;;;;;-3.12;79.41;99809.47;6004949;23;20457;-73
2022/12/14 05:22:15;;;;;;;3.63;3.35;;;;;;;-2.92;79.39;99818.69;6033183;23;20018;-72
2022/12/14 05:24:41;;;;;;;3.13;2.83;;;;;;;-3.51;79.06;99711.53;6010558;23;20031;-73
2022/12/14 05:27:08;;;;;;;2.33;2.22;;;;;;;-3.61;79.30;99708.25;6043463;23;20083;-75
2022/12/14 05:29:35;;;;;;;2.50;2.40;;;;;;;-3.59;79.31;99671.47;6002479;23;20039;-73
2022/12/14 05:32:02;;;;;;;2.20;2.10;;;;;;;-2.94;78.67;99772.50;6008215;23;20032;-74
2022/12/14 05:34:29;;;;;;;2.28;2.17;;;;;;;-2.84;78.81;99778.38;6035086;23;20153;-73
2022/12/14 05:36:55;;;;;;;2.60;2.50;;;;;;;-4.14;78.25;99555.03;5983566;23;20414;-73
2022/12/14 05:39:22;;;;;;;2.10;2.00;;;;;;;-2.77;78.36;99767.13;6043660;23;20427;-73
2022/12/14 05:41:48;;;;;;;2.53;2.38;;;;;;;-3.44;78.05;99648.22;6010837;23;20105;-73
2022/12/14 05:44:14;;;;;;;2.67;2.58;;;;;;;-3.04;77.42;99715.28;6048536;23;20504;-74
2022/12/14 05:46:41;;;;;;;2.47;2.38;;;;;;;-3.09;77.83;99699.06;5996642;23;20007;-73
2022/12/14 05:49:07;;;;;;;2.72;2.60;;;;;;;-2.96;77.56;99725.47;6005519;23;20035;-73
2022/12/14 05:51:34;;;;;;;2.15;2.05;;;;;;;-3.03;77.93;99706.72;6030655;23;20158;-74
2022/12/14 05:54:00;;;;;;;2.45;2.35;;;;;;;-2.75;76.94;99754.28;6017266;23;20098;-73
2022/12/14 05:56:27;;;;;;;3.63;3.38;;;;;;;-3.22;77.73;99693.25;6045491;23;20019;-74
2022/12/14 05:58:53;;;;;;;2.60;2.50;;;;;;;-2.77;77.54;99762.00;5993759;23;20110;-73
2022/12/14 06:01:20;;;;;;;2.28;2.17;;;;;;;-3.40;77.83;99662.72;5991047;23;20088;-73
2022/12/14 06:03:46;;;;;;;2.67;2.58;;;;;;;-2.85;78.73;99756.97;6049363;23;20031;-73
2022/12/14 06:06:13;;;;;;;2.30;2.20;;;;;;;-3.25;77.57;99690.75;6028539;23;20022;-74
2022/12/14 06:08:43;;;;;;;2.60;2.40;;;;;;;-2.72;77.97;99770.50;5992725;23;20056;-73
2022/12/14 06:11:21;;;;;;;2.30;2.20;;;;;;;-3.37;79.14;99672.91;6018322;23;20162;-74
2022/12/14 06:13:48;;;;;;;5.43;3.08;;;;;;;-2.72;78.23;99760.22;6020927;23;20598;-72
2022/12/14 06:16:20;;;;;;;2.72;2.63;;;;;;;-3.26;78.24;99673.66;6056227;23;20029;-73
2022/12/14 06:18:53;;;;;;;2.40;2.30;;;;;;;-2.75;78.90;99769.69;5998419;23;20717;-72
2022/12/14 06:21:22;;;;;;;2.72;2.53;;;;;;;-2.95;77.86;99732.28;6005867;23;20038;-73
2022/12/14 06:23:49;;;;;;;3.03;2.72;;;;;;;-3.00;78.38;99734.06;6002232;23;20100;-74
2022/12/14 06:26:16;;;;;;;2.10;2.00;;;;;;;-3.28;78.84;99702.75;6054741;23;20236;-73
2022/12/14 06:28:43;;;;;;;2.40;2.30;;;;;;;-3.07;78.29;99720.44;6032481;23;20034;-73
2022/12/14 06:31:18;;;;;;;4.40;2.67;;;;;;;-2.75;78.28;99760.25;6015422;23;20499;-74
2022/12/14 06:33:45;;;;;;;2.78;2.58;;;;;;;-2.91;78.55;99759.59;6001425;23;20080;-75
2022/12/14 06:36:15;;;;;;;2.35;2.25;;;;;;;-3.35;79.02;99678.88;6036338;23;20031;-74
2022/12/14 06:38:42;;;;;;;3.25;3.05;;;;;;;-3.31;78.72;99695.94;5996398;23;20096;-73
2022/12/14 06:41:10;;;;;;;2.67;2.58;;;;;;;-2.84;79.11;99774.06;6020744;23;20589;-72
2022/12/14 06:43:37;;;;;;;3.10;2.95;;;;;;;-2.80;78.97;99787.72;6000145;23;20036;-73
2022/12/14 06:46:11;;;;;;;2.50;2.30;;;;;;;-3.62;80.36;99647.56;6038521;23;20098;-73
2022/12/14 06:48:41;;;;;;;2.97;2.72;;;;;;;-2.93;80.17;99761.34;5993104;23;20297;-72
2022/12/14 06:51:08;;;;;;;2.38;2.28;;;;;;;-2.75;79.26;99779.97;6048668;23;20413;-73
2022/12/14 06:53:35;;;;;;;2.42;2.33;;;;;;;-3.22;79.36;99702.69;6002224;23;20019;-73
2022/12/14 06:56:10;;;;;;;3.10;3.00;;;;;;;-2.76;79.56;99778.28;5999784;23;20030;-73
2022/12/14 06:58:37;;;;;;;2.35;2.25;;;;;;;-3.28;79.15;99684.81;6057192;23;20773;-73
2022/12/14 07:01:09;;;;;;;2.75;2.53;;;;;;;-2.89;79.69;99751.88;6043058;23;20038;-74
2022/12/14 07:03:36;;;;;;;;;;;;;;;-2.79;79.89;99773.16;6004435;23;20603;-74
2022/12/14 07:06:03;;;;;;;3.33;3.13;;;;;;;-3.33;80.18;99689.97;6051193;23;19910;-73
2022/12/14 07:08:32;;;;;;;3.00;2.80;;;;;;;-2.90;80.34;99761.31;6009022;23;20022;-73
2022/12/14 07:11:08;;;;;;;3.42;3.22;;;;;;;-2.98;80.78;99740.03;6020371;23;20023;-73
2022/12/14 07:13:35;;;;;;;2.42;2.33;;;;;;;-4.37;80.28;99511.72;6054078;23;20037;-73
2022/12/14 07:16:03;;;;;;;2.20;2.10;;;;;;;-2.79;81.31;99773.16;5983751;23;20687;-74
2022/12/14 07:18:31;;;;;;;2.78;2.67;;;;;;;-2.75;80.18;99775.66;6019691;23;20019;-72
2022/12/14 07:21:02;;;;;;;3.65;3.35;;;;;;;-2.79;80.87;99773.16;6057445;23;20072;-72
2022/12/14 07:23:30;;;;;;;2.55;2.45;;;;;;;-2.76;80.51;99783.41;6013867;23;20019;-74
2022/12/14 07:26:09;;;;;;;3.38;3.28;;;;;;;-3.12;79.60;99724.78;6009971;23;20023;-73
2022/12/14 07:28:37;;;;;;;2.63;2.53;;;;;;;-2.89;79.79;99746.75;6053412;23;20019;-73
2022/12/14 07:31:06;;;;;;;2.30;2.20;;;;;;;-2.78;79.90;99764.63;6013332;23;20022;-73
2022/12/14 07:33:35;;;;;;;;;;;;;;;-2.71;78.82;99766.22;6015862;23;20023;-74
2022/12/14 07:36:10;;;;;;;2.20;2.10;;;;;;;-3.42;78.43;99649.88;6032122;23;19967;-73
2022/12/14 07:38:38;;;;;;;2.50;2.40;;;;;;;-2.75;79.35;99756.84;6011924;23;20041;-75
2022/12/14 07:41:08;;;;;;;2.80;2.63;;;;;;;-2.90;79.12;99745.91;6049853;23;20022;-73
2022/12/14 07:43:38;;;;;;;2.50;2.40;;;;;;;-3.09;79.42;99704.22;6042053;23;20202;-74
2022/12/14 07:46:07;;;;;;;2.10;2.00;;;;;;;-2.85;79.70;99743.28;6010248;23;20067;-73
2022/12/14 07:48:34;;;;;;;2.47;2.38;;;;;;;-2.72;79.38;99767.09;6025700;23;20458;-73
2022/12/14 07:51:02;;;;;;;2.20;2.10;;;;;;;-2.68;79.36;99771.31;6018272;23;20174;-76
2022/12/14 07:53:29;;;;;;;3.05;2.85;;;;;;;-3.02;78.63;99715.28;5996055;23;20151;-76
2022/12/14 07:56:03;;;;;;;3.05;2.95;;;;;;;-2.83;77.93;99752.69;6006076;23;20030;-75
2022/12/14 07:58:31;;;;;;;2.47;2.38;;;;;;;-3.97;78.41;99554.84;6021732;23;20018;-75
2022/12/14 08:01:11;;;;;;;2.75;2.65;;;;;;;-2.76;78.54;99750.03;6019013;23;20019;-75
2022/12/14 08:03:40;;;;;;;2.38;2.28;;;;;;;-2.54;78.43;99773.72;6050454;23;20520;-76
2022/12/14 08:06:08;;;;;;;2.30;2.20;;;;;;;-2.56;77.69;99765.19;5986196;23;20535;-74
2022/12/14 08:08:35;;;;;;;2.40;2.30;;;;;;;-2.56;77.66;99766.03;6007387;23;20026;-76
2022/12/14 08:11:02;;;;;;;2.58;2.47;;;;;;;-3.58;77.58;99583.44;6034397;23;20019;-76
2022/12/14 08:13:29;;;;;;;2.58;2.47;;;;;;;-2.89;77.22;99696.25;6003074;23;20082;-75
2022/12/14 08:16:01;;;;;;;3.35;3.15;;;;;;;-3.16;78.11;99643.59;6049952;23;20030;-76
2022/12/14 08:18:28;;;;;;;2.50;2.40;;;;;;;-3.80;77.95;99540.09;6011679;23;20039;-76
2022/12/14 08:20:54;;;;;;;2.78;2.67;;;;;;;-2.91;77.66;99676.63;6050504;23;20019;-76
2022/12/14 08:23:20;;;;;;;4.38;3.13;;;;;;;-2.35;77.69;99771.72;5995915;23;20028;-76
2022/12/14 08:25:58;;;;;;;3.13;2.92;;;;;;;-2.39;78.27;99760.63;5984658;23;20041;-76
2022/12/14 08:28:28;;;;;;;6.68;2.53;;;;;;;-2.36;78.05;99767.47;6040707;23;20023;-76
2022/12/14 08:31:01;;;;;;;2.80;2.65;;;;;;;-2.62;78.26;99719.88;6011224;23;20015;-76
2022/12/14 08:33:28;;;;;;;2.30;2.20;;;;;;;-3.97;76.90;99490.75;6041171;23;20038;-76
2022/12/14 08:35:55;;;;;;;3.35;3.15;;;;;;;-2.44;77.31;99727.31;6010497;23;20418;-75
2022/12/14 08:38:21;;;;;;;2.22;2.13;;;;;;;-2.25;76.81;99758.69;6050271;23;20034;-75
2022/12/14 08:40:48;;;;;;;3.00;2.90;;;;;;;-2.54;76.68;99700.06;6014806;23;20027;-76
2022/12/14 08:43:15;;;;;;;2.50;2.40;;;;;;;-2.42;76.10;99715.28;6027683;23;20030;-76
2022/12/14 08:45:48;;;;;;;2.92;2.83;;;;;;;-2.35;76.46;99725.47;5995866;23;20031;-77
2022/12/14 08:48:14;;;;;;;4.28;3.03;;;;;;;-2.58;76.77;99685.56;6011001;23;20552;-75
2022/12/14 08:50:41;;;;;;;2.40;2.30;;;;;;;-2.12;76.20;99748.25;6049086;23;20135;-75
2022/12/14 08:53:07;;;;;;;2.30;2.20;;;;;;;-2.85;76.67;99635.44;6034292;23;20069;-76
2022/12/14 08:55:36;;;;;;;2.45;2.35;;;;;;;-2.54;76.11;99676.94;6007063;23;20066;-75
2022/12/14 08:58:04;;;;;;;2.72;2.63;;;;;;;-2.05;76.61;99752.41;5989020;23;20048;-75
2022/12/14 09:00:30;;;;;;;2.80;2.60;;;;;;;-2.35;75.77;99704.91;6038917;23;20026;-76
2022/12/14 09:02:57;;;;;;;3.58;3.38;;;;;;;-1.88;76.22;99773.56;5994326;23;20022;-76
2022/12/14 09:05:24;;;;;;;2.92;2.83;;;;;;;-3.56;75.06;99476.56;6012482;23;20110;-76
2022/12/14 09:07:50;;;;;;;2.70;2.60;;;;;;;-2.20;75.21;99699.53;6046491;23;20030;-74
2022/12/14 09:10:17;;;;;;;2.40;2.30;;;;;;;-3.36;75.26;99510.47;5993945;23;20031;-75
2022/12/14 09:12:43;;;;;;;3.20;3.00;;;;;;;-1.83;75.31;99773.50;5997529;23;20129;-75
2022/12/14 09:15:10;;;;;;;2.70;2.60;;;;;;;-1.82;74.66;99750.31;6021072;23;20053;-75
2022/12/14 09:17:37;;;;;;;2.53;2.40;;;;;;;-2.46;74.89;99646.00;6035692;23;20021;-76
2022/12/14 09:20:04;;;;;;;3.65;3.28;;;;;;;-1.79;74.81;99754.56;6019164;23;20030;-75
2022/12/14 09:22:31;;;;;;;3.72;2.70;;;;;;;-1.95;74.78;99745.41;6047208;23;20249;-75
2022/12/14 09:24:57;;;;;;;3.72;3.47;;;;;;;-2.31;75.22;99676.56;6005466;23;20044;-75
2022/12/14 09:27:24;;;;;;;5.72;2.88;;;;;;;-1.84;74.59;99739.22;6050074;23;20401;-72
2022/12/14 09:29:50;;;;;;;2.60;2.50;;;;;;;-2.02;74.45;99727.50;6022258;23;20140;-77
2022/12/14 09:32:16;;;;;;;2.80;2.60;;;;;;;-1.69;75.07;99768.94;6028964;23;20722;-76
2022/12/14 09:34:43;;;;;;;3.05;2.85;;;;;;;-1.86;74.72;99753.81;6006797;23;20019;-74
2022/12/14 09:37:09;;;;;;;2.92;2.83;;;;;;;-2.02;74.38;99699.22;6024570;23;20031;-75
2022/12/14 09:39:35;;;;;;;5.57;3.08;;;;;;;-2.59;74.14;99596.53;5980253;23;20447;-75
2022/12/14 09:42:38;;;;;;;2.70;2.53;;;;;;;-2.18;73.76;99656.66;6003684;23;20331;-76
2022/12/14 09:45:32;;;;;;;2.38;2.28;;;;;;;-1.52;73.80;99753.25;6038912;23;20026;-77
2022/12/14 09:48:15;;;;;;;2.58;2.47;;;;;;;-1.52;73.77;99748.09;5998084;23;20050;-74
2022/12/14 09:50:46;;;;;;;2.88;2.78;;;;;;;-2.19;73.16;99636.13;6043086;23;20077;-74
2022/12/14 09:53:14;;;;;;;2.47;2.38;;;;;;;-2.01;73.41;99671.78;6018889;23;20187;-74
2022/12/14 09:55:44;;;;;;;2.47;2.38;;;;;;;-2.03;73.50;99678.69;6041026;23;20641;-74
2022/12/14 09:58:22;;;;;;;3.25;3.05;;;;;;;-1.43;73.97;99754.78;6018336;23;20030;-76
2022/12/14 10:01:04;;;;;;;3.33;3.15;;;;;;;-1.54;73.37;99736.09;6009334;23;20039;-75
2022/12/14 10:03:59;;;;;;;3.38;3.15;;;;;;;-1.83;73.83;99686.88;6010105;23;20077;-75
2022/12/14 10:06:38;;;;;;;2.40;2.30;;;;;;;-1.31;73.28;99759.69;6046421;23;20014;-75
2022/12/14 10:09:16;;;;;;;2.85;2.65;;;;;;;-1.35;73.08;99755.50;6013590;23;20078;-75
2022/12/14 10:12:16;;;;;;;2.55;2.45;;;;;;;-1.45;73.40;99738.53;6049161;23;20032;-74
2022/12/14 10:15:24;;;;;;;2.55;2.45;;;;;;;-2.49;73.28;99540.72;5998979;23;20031;-74
2022/12/14 10:17:59;;;;;;;4.15;3.20;;;;;;;-2.23;73.66;99569.34;5996855;23;20015;-75
2022/12/14 10:20:33;;;;;;;3.17;3.08;;;;;;;-1.07;73.83;99768.69;6052477;23;20072;-77
2022/12/14 10:23:01;;;;;;;3.00;2.90;;;;;;;-1.01;73.48;99770.28;6034995;23;20110;-76
2022/12/14 10:25:31;;;;;;;2.75;2.65;;;;;;;-1.25;73.55;99751.84;5978944;23;20256;-76
2022/12/14 10:28:04;;;;;;;6.38;3.88;;;;;;;-0.92;73.08;99787.28;6037558;23;20047;-77
2022/12/14 10:30:41;;;;;;;3.17;3.08;;;;;;;-1.14;73.35;99763.66;6003897;23;20671;-76
2022/12/14 10:33:20;;;;;;;3.08;2.97;;;;;;;-1.04;73.33;99770.38;6033293;23;20027;-77
2022/12/14 10:36:13;;;;;;;2.78;2.67;;;;;;;-1.02;74.18;99784.06;6006782;23;20179;-75
2022/12/14 10:38:53;;;;;;;3.00;2.88;;;;;;;-2.15;74.06;99597.50;6004957;23;20026;-76
2022/12/14 10:41:29;;;;;;;3.47;3.20;;;;;;;-0.88;74.80;99792.34;6025008;23;20027;-76
2022/12/14 10:44:22;;;;;;;3.60;3.30;;;;;;;-1.17;74.04;99725.97;6013388;23;20407;-75
2022/12/14 10:46:54;;;;;;;;;;;;;;;-0.83;73.54;99777.66;6048777;23;20026;-76
2022/12/14 10:49:29;;;;;;;3.05;2.90;;;;;;;-0.73;73.56;99780.03;6025739;23;20493;-77
2022/12/14 10:52:02;;;;;;;2.85;2.75;;;;;;;-0.73;73.58;99769.75;6005788;23;20207;-75
2022/12/14 10:54:36;;;;;;;3.40;3.20;;;;;;;-0.94;73.20;99727.22;5994425;23;20027;-76
2022/12/14 10:57:02;;;;;;;3.30;3.10;;;;;;;-1.47;73.26;99637.34;6029699;23;20092;-75
2022/12/14 10:59:36;;;;;;;3.00;2.80;;;;;;;-0.52;73.80;99794.19;6008444;23;20012;-75
2022/12/14 11:02:26;;;;;;;2.58;2.47;;;;;;;-0.46;73.88;99796.63;6000120;23;20025;-76
2022/12/14 11:05:00;;;;;;;5.22;3.33;;;;;;;-0.51;73.50;99783.84;6055989;23;20037;-75
2022/12/14 11:07:38;;;;;;;2.90;2.70;;;;;;;-0.72;73.95;99749.09;6011849;23;20101;-76
2022/12/14 11:10:17;;;;;;;2.90;2.53;;;;;;;-1.17;73.45;99677.06;6017786;23;20081;-77
2022/12/14 11:13:11;;;;;;;6.78;2.83;;;;;;;-0.43;74.06;99796.56;6033121;23;20034;-74
2022/12/14 11:15:44;;;;;;;2.90;2.70;;;;;;;-0.71;74.30;99752.53;6015739;23;20037;-75
2022/12/14 11:18:10;;;;;;;;;;;;;;;-0.53;73.91;99783.03;6009047;23;20022;-76
2022/12/14 11:20:47;;;;;;;2.85;2.75;;;;;;;-0.52;74.11;99774.44;6021936;23;19964;-77
2022/12/14 11:23:27;;;;;;;3.05;2.95;;;;;;;-1.19;74.62;99704.56;6052453;23;20385;-76
2022/12/14 11:26:00;;;;;;;3.08;2.90;;;;;;;-0.57;75.30;99775.41;6022270;23;20027;-76
2022/12/14 11:28:57;;;;;;;14.15;4.47;;;;;;;-0.46;75.32;99789.78;6015512;23;20056;-76
2022/12/14 11:31:26;;;;;;;3.55;3.08;;;;;;;-0.60;75.24;99781.50;5997730;23;20038;-77
2022/12/14 11:33:55;;;;;;;3.33;3.00;;;;;;;-0.57;76.07;99790.88;5994898;23;20042;-77
2022/12/14 11:36:21;;;;;;;3.25;3.05;;;;;;;-0.55;76.41;99800.25;6025396;23;20033;-77
2022/12/14 11:38:59;;;;;;;4.30;4.05;;;;;;;-0.59;76.96;99802.94;6000358;23;20085;-77
2022/12/14 11:41:35;;;;;;;2.65;2.55;;;;;;;-0.51;77.19;99819.94;6029330;23;20694;-75
2022/12/14 11:44:23;;;;;;;2.78;2.67;;;;;;;-0.68;77.03;99789.38;6009448;23;20082;-75
2022/12/14 11:46:59;;;;;;;2.90;2.80;;;;;;;-0.39;76.90;99826.56;6050770;23;20030;-74
2022/12/14 11:49:37;;;;;;;3.42;3.25;;;;;;;-0.37;77.42;99829.97;6035703;23;20030;-75
2022/12/14 11:52:04;;;;;;;3.60;3.40;;;;;;;-0.39;77.99;99830.88;6008520;23;20521;-74
2022/12/14 11:54:36;;;;;;;3.25;3.15;;;;;;;-0.39;78.00;99834.28;6031279;23;20043;-75
2022/12/14 11:57:11;;;;;;;2.92;2.80;;;;;;;-0.46;78.23;99831.00;6009171;23;20042;-76
2022/12/14 11:59:40;;;;;;;7.05;3.83;;;;;;;-0.35;78.30;99833.34;6048087;23;20106;-75
2022/12/14 12:02:33;;;;;;;2.85;2.72;;;;;;;-0.55;79.15;99800.25;6028092;23;20030;-77
2022/12/14 12:05:18;;;;;;;5.68;3.30;;;;;;;-0.31;79.57;99847.88;6012050;23;21326;-75
2022/12/14 12:07:57;;;;;;;5.63;5.15;;;;;;;-0.30;80.20;99859.03;6044552;23;20050;-74
2022/12/14 12:10:57;;;;;;;3.35;3.15;;;;;;;-0.17;80.34;99863.03;6026490;23;20018;-74
2022/12/14 12:13:31;;;;;;;3.67;3.47;;;;;;;-0.21;80.17;99866.56;6042424;23;20022;-73
2022/12/14 12:16:12;;;;;;;4.28;3.97;;;;;;;-0.38;80.36;99833.44;6035754;23;20031;-75